Time;durP1;ratioP1;P1;durP2;ratioP2;P2;SDS_P1;SDS_P2;PMS_P1;PMS_P2;Temp;Humidity;BMP_temperature;BMP_pressure;BME280_temperature;BME280_humidity;BME280_pressure;Samples;Min_cycle;Max_cycle;Signal;HPM_P1;HPM_P2
2021/05/15 00:01:38;;;;;;;3.60;2.80;;;11.20;99.90;;;;;;5095853;28;20464;-66
2021/05/15 00:04:05;;;;;;;5.03;3.30;;;11.20;99.90;;;;;;5096222;28;20454;-66
2021/05/15 00:06:32;;;;;;;3.43;3.13;;;11.10;99.90;;;;;;5095991;28;20790;-65
2021/05/15 00:08:58;;;;;;;3.97;3.57;;;11.10;99.90;;;;;;5095845;28;20468;-65
2021/05/15 00:11:24;;;;;;;4.23;3.60;;;11.10;99.90;;;;;;5095952;28;20546;-65
2021/05/15 00:13:51;;;;;;;4.63;3.00;;;11.10;99.90;;;;;;5095587;28;20457;-65
2021/05/15 00:16:19;;;;;;;4.03;3.63;;;11.20;99.90;;;;;;5095933;28;20454;-65
2021/05/15 00:18:45;;;;;;;3.50;3.20;;;11.10;99.90;;;;;;5094939;28;20473;-65
2021/05/15 00:21:11;;;;;;;3.30;3.00;;;11.10;99.90;;;;;;5095279;28;20449;-65
2021/05/15 00:23:38;;;;;;;3.70;3.30;;;11.10;99.90;;;;;;5095760;28;20464;-65
2021/05/15 00:26:05;;;;;;;4.63;4.00;;;11.10;99.90;;;;;;5095589;28;20464;-65
2021/05/15 00:28:32;;;;;;;6.97;3.90;;;11.10;99.90;;;;;;5096079;28;20519;-66
2021/05/15 00:30:58;;;;;;;3.67;3.37;;;11.10;99.90;;;;;;5095703;28;20496;-65
2021/05/15 00:33:28;;;;;;;3.53;2.93;;;11.10;99.90;;;;;;5097418;28;20874;-65
2021/05/15 00:35:54;;;;;;;3.40;3.10;;;11.10;99.90;;;;;;5095363;28;20453;-65
2021/05/15 00:38:21;;;;;;;4.43;3.37;;;11.10;99.90;;;;;;5095259;28;20472;-65
2021/05/15 00:40:47;;;;;;;4.00;3.00;;;11.00;99.90;;;;;;5095313;28;20450;-65
2021/05/15 00:43:14;;;;;;;3.80;3.50;;;11.00;99.90;;;;;;5095423;28;20468;-65
2021/05/15 00:45:40;;;;;;;4.50;3.13;;;10.90;99.90;;;;;;5094558;28;20984;-65
2021/05/15 00:48:09;;;;;;;4.43;3.97;;;10.90;99.90;;;;;;5095040;28;20468;-65
2021/05/15 00:50:36;;;;;;;6.57;3.60;;;10.80;99.90;;;;;;5097405;28;20538;-65
2021/05/15 00:53:04;;;;;;;3.70;3.30;;;10.80;99.90;;;;;;5098689;28;20464;-65
2021/05/15 00:55:35;;;;;;;5.90;3.93;;;10.80;99.90;;;;;;5098708;28;20464;-65
2021/05/15 00:58:02;;;;;;;4.00;3.33;;;10.70;99.90;;;;;;5099129;28;20460;-65
2021/05/15 01:00:29;;;;;;;4.30;3.27;;;10.70;99.90;;;;;;5098560;28;20452;-65
2021/05/15 01:02:56;;;;;;;4.60;3.30;;;10.70;99.90;;;;;;5098613;28;20454;-65
2021/05/15 01:05:22;;;;;;;4.60;3.83;;;10.70;99.90;;;;;;5098680;28;20507;-65
2021/05/15 01:07:50;;;;;;;3.73;3.43;;;10.60;99.90;;;;;;5098782;28;20453;-65
2021/05/15 01:10:17;;;;;;;4.20;3.80;;;10.60;99.90;;;;;;5098628;28;20486;-65
2021/05/15 01:12:51;;;;;;;5.27;3.73;;;10.50;99.90;;;;;;5098360;28;20476;-65
2021/05/15 01:15:18;;;;;;;5.67;3.90;;;10.50;99.90;;;;;;5098082;28;20456;-65
2021/05/15 01:17:51;;;;;;;3.63;3.33;;;10.50;99.90;;;;;;5098807;28;20769;-65
2021/05/15 01:20:19;;;;;;;6.13;4.03;;;10.50;99.90;;;;;;5098455;28;20513;-65
2021/05/15 01:22:46;;;;;;;3.90;3.50;;;10.40;99.90;;;;;;5098201;28;20530;-65
2021/05/15 01:25:13;;;;;;;4.60;4.03;;;10.40;99.90;;;;;;5097816;28;20457;-65
2021/05/15 01:27:39;;;;;;;5.40;4.73;;;10.40;99.90;;;;;;5098156;28;20458;-65
2021/05/15 01:30:11;;;;;;;5.70;4.20;;;10.40;99.90;;;;;;5098092;28;20528;-65
2021/05/15 01:32:39;;;;;;;4.80;4.13;;;10.30;99.90;;;;;;5097570;28;20481;-65
2021/05/15 01:35:06;;;;;;;4.67;3.80;;;10.30;99.90;;;;;;5098234;28;20457;-65
2021/05/15 01:37:32;;;;;;;6.43;4.00;;;10.30;99.90;;;;;;5098147;28;20519;-65
2021/05/15 01:40:00;;;;;;;4.07;3.67;;;10.30;99.90;;;;;;5097901;28;20468;-65
2021/05/15 01:42:26;;;;;;;5.87;4.90;;;10.20;99.90;;;;;;5097810;28;20465;-65
2021/05/15 01:44:52;;;;;;;7.17;4.87;;;10.20;99.90;;;;;;5097822;28;20453;-65
2021/05/15 01:47:18;;;;;;;8.10;5.03;;;10.30;99.90;;;;;;5097923;28;20449;-65
2021/05/15 01:49:47;;;;;;;5.73;4.17;;;10.20;99.90;;;;;;5097612;28;20457;-65
2021/05/15 01:52:13;;;;;;;7.80;4.47;;;10.20;99.90;;;;;;5097343;28;20473;-65
2021/05/15 01:54:40;;;;;;;6.60;4.60;;;10.20;99.90;;;;;;5097669;28;20793;-65
2021/05/15 01:57:07;;;;;;;5.80;4.83;;;10.20;99.90;;;;;;5097646;28;20824;-66
2021/05/15 01:59:37;;;;;;;7.30;4.93;;;10.10;99.90;;;;;;5097775;28;20906;-65
2021/05/15 02:02:03;;;;;;;5.90;4.67;;;10.10;99.90;;;;;;5096496;28;20453;-65
2021/05/15 02:04:29;;;;;;;5.00;4.50;;;10.10;99.90;;;;;;5097332;28;20925;-65
2021/05/15 02:06:56;;;;;;;6.13;4.60;;;10.10;99.90;;;;;;5097319;28;20449;-65
2021/05/15 02:09:22;;;;;;;4.43;4.03;;;10.10;99.90;;;;;;5097552;28;20765;-65
2021/05/15 02:11:48;;;;;;;5.50;4.93;;;10.10;99.90;;;;;;5096995;28;21030;-65
2021/05/15 02:14:18;;;;;;;7.13;5.13;;;10.00;99.90;;;;;;5097254;28;20473;-65
2021/05/15 02:16:44;;;;;;;5.43;4.87;;;10.00;99.90;;;;;;5097224;28;20785;-65
2021/05/15 02:19:10;;;;;;;5.13;4.33;;;10.00;99.90;;;;;;5097370;28;20753;-65
2021/05/15 02:21:37;;;;;;;6.23;5.07;;;10.00;99.90;;;;;;5097966;28;20464;-65
2021/05/15 02:24:04;;;;;;;5.13;4.53;;;10.00;99.90;;;;;;5097311;28;20453;-65
2021/05/15 02:26:33;;;;;;;5.80;4.67;;;10.00;99.90;;;;;;5096904;28;20457;-65
2021/05/15 02:28:59;;;;;;;6.30;5.40;;;10.00;99.90;;;;;;5096658;28;20457;-65
2021/05/15 02:31:26;;;;;;;5.80;5.30;;;10.00;99.90;;;;;;5096377;28;20481;-65
2021/05/15 02:33:52;;;;;;;5.77;4.67;;;10.00;99.90;;;;;;5096918;28;20453;-64
2021/05/15 02:36:18;;;;;;;6.63;5.03;;;10.00;99.90;;;;;;5096667;28;20457;-64
2021/05/15 02:38:44;;;;;;;5.27;4.77;;;10.00;99.90;;;;;;5097018;28;20527;-66
2021/05/15 02:41:11;;;;;;;6.07;5.20;;;10.00;99.90;;;;;;5096661;28;20464;-66
2021/05/15 02:43:37;;;;;;;6.00;4.37;;;10.00;99.90;;;;;;5096373;28;20468;-65
2021/05/15 02:46:03;;;;;;;6.00;4.83;;;9.90;99.90;;;;;;5096754;28;20457;-64
2021/05/15 02:48:30;;;;;;;6.37;4.50;;;9.90;99.90;;;;;;5096669;28;20824;-65
2021/05/15 02:50:56;;;;;;;6.50;5.03;;;9.90;99.90;;;;;;5096291;28;20961;-65
2021/05/15 02:53:23;;;;;;;5.90;4.87;;;9.90;99.90;;;;;;5096772;28;20480;-65
2021/05/15 02:55:49;;;;;;;6.20;5.10;;;9.90;99.90;;;;;;5096459;28;20820;-65
2021/05/15 02:58:16;;;;;;;6.83;5.30;;;9.90;99.90;;;;;;5096403;28;20470;-64
2021/05/15 03:00:43;;;;;;;5.50;4.90;;;9.90;99.90;;;;;;5096701;28;20454;-65
2021/05/15 03:03:09;;;;;;;10.90;5.43;;;9.90;99.90;;;;;;5096780;28;20522;-65
2021/05/15 03:05:38;;;;;;;5.20;4.63;;;9.90;99.90;;;;;;5096859;28;20454;-65
2021/05/15 03:08:05;;;;;;;6.60;5.37;;;9.90;99.90;;;;;;5096058;28;20468;-65
2021/05/15 03:10:31;;;;;;;7.90;5.13;;;9.80;99.90;;;;;;5096435;28;20552;-65
2021/05/15 03:12:58;;;;;;;5.30;4.80;;;9.80;99.90;;;;;;5095964;28;20767;-65
2021/05/15 03:15:25;;;;;;;6.30;5.03;;;9.80;99.90;;;;;;5095675;28;20468;-65
2021/05/15 03:17:52;;;;;;;7.37;5.63;;;9.80;99.90;;;;;;5095836;28;20461;-65
2021/05/15 03:20:21;;;;;;;6.13;5.10;;;9.80;99.90;;;;;;5095565;28;20458;-65
2021/05/15 03:22:49;;;;;;;6.30;5.30;;;9.80;99.90;;;;;;5095750;28;20454;-65
2021/05/15 03:25:17;;;;;;;7.63;4.80;;;9.80;99.90;;;;;;5095882;28;20556;-65
2021/05/15 03:27:44;;;;;;;7.23;5.60;;;9.80;99.90;;;;;;5095972;28;20540;-65
2021/05/15 03:30:12;;;;;;;6.03;5.30;;;9.80;99.90;;;;;;5095837;28;20468;-65
2021/05/15 03:32:40;;;;;;;5.97;4.93;;;9.80;99.90;;;;;;5095415;28;20501;-65
2021/05/15 03:35:07;;;;;;;5.90;5.30;;;9.80;99.90;;;;;;5095399;28;20913;-65
2021/05/15 03:37:34;;;;;;;6.50;5.37;;;9.80;99.90;;;;;;5095689;28;20522;-65
2021/05/15 03:40:01;;;;;;;7.50;5.33;;;9.80;99.90;;;;;;5095636;28;20457;-65
2021/05/15 03:42:27;;;;;;;4.57;4.13;;;9.80;99.90;;;;;;5095676;28;20460;-65
2021/05/15 03:44:53;;;;;;;5.90;5.17;;;9.80;99.90;;;;;;5095557;28;20536;-65
2021/05/15 03:47:19;;;;;;;7.60;5.50;;;9.80;99.90;;;;;;5096374;28;20457;-67
2021/05/15 03:49:46;;;;;;;7.80;5.50;;;9.90;99.90;;;;;;5106377;28;20461;-68
2021/05/15 03:52:12;;;;;;;5.77;5.17;;;9.90;99.90;;;;;;5106635;28;20477;-68
2021/05/15 03:54:38;;;;;;;7.90;6.60;;;9.90;99.90;;;;;;5106693;28;20590;-68
2021/05/15 03:57:08;;;;;;;6.63;5.67;;;9.90;99.90;;;;;;5105708;28;20909;-69
2021/05/15 03:59:35;;;;;;;8.50;5.57;;;9.90;99.90;;;;;;5106246;28;20449;-69
2021/05/15 04:02:01;;;;;;;6.73;5.37;;;9.90;99.90;;;;;;5106426;28;20473;-68
2021/05/15 04:04:27;;;;;;;6.67;5.30;;;10.00;99.90;;;;;;5106544;28;20642;-68
2021/05/15 04:06:53;;;;;;;5.90;5.30;;;10.00;99.90;;;;;;5105775;28;20464;-69
2021/05/15 04:09:20;;;;;;;18.43;6.20;;;10.10;99.90;;;;;;5107599;28;20541;-68
2021/05/15 04:11:46;;;;;;;7.20;6.20;;;10.10;99.90;;;;;;5106959;28;20465;-68
2021/05/15 04:14:26;;;;;;;6.83;6.13;;;10.10;99.90;;;;;;5106902;28;20457;-69
2021/05/15 04:17:03;;;;;;;7.90;6.07;;;10.10;99.90;;;;;;5107188;28;20467;-68
2021/05/15 04:19:29;;;;;;;7.10;5.13;;;10.20;99.90;;;;;;5106365;28;20461;-69
2021/05/15 04:21:57;;;;;;;7.87;5.80;;;10.20;99.90;;;;;;5106634;28;20453;-69
2021/05/15 04:24:25;;;;;;;9.00;6.00;;;10.30;99.90;;;;;;5107226;28;20453;-69
2021/05/15 04:26:52;;;;;;;6.63;5.70;;;10.30;99.90;;;;;;5110718;28;20585;-69
2021/05/15 04:29:19;;;;;;;8.13;5.90;;;10.30;99.90;;;;;;5109639;28;20445;-68
2021/05/15 04:31:46;;;;;;;9.03;6.30;;;10.40;99.90;;;;;;5109860;28;20489;-68
2021/05/15 04:34:12;;;;;;;6.50;5.90;;;10.50;99.90;;;;;;5112641;28;20460;-68
2021/05/15 04:36:38;;;;;;;8.47;5.00;;;10.50;99.90;;;;;;5111726;28;20453;-68
2021/05/15 04:39:05;;;;;;;7.10;6.07;;;10.50;99.90;;;;;;5111822;28;20454;-68
2021/05/15 04:41:32;;;;;;;5.33;4.77;;;10.60;99.90;;;;;;5112564;28;20456;-70
2021/05/15 04:43:58;;;;;;;6.50;5.10;;;10.60;99.90;;;;;;5110691;28;20457;-69
2021/05/15 04:46:25;;;;;;;5.20;4.60;;;10.70;99.90;;;;;;5109178;28;20518;-68
2021/05/15 04:48:51;;;;;;;6.07;4.93;;;10.70;99.90;;;;;;5109081;28;20456;-68
2021/05/15 04:51:18;;;;;;;6.83;4.60;;;10.70;99.90;;;;;;5109779;28;20484;-68
2021/05/15 04:53:44;;;;;;;5.30;4.40;;;10.70;99.90;;;;;;5109263;28;20525;-69
2021/05/15 04:56:10;;;;;;;5.70;5.00;;;10.70;99.90;;;;;;5110413;28;20461;-69
2021/05/15 04:58:37;;;;;;;7.03;5.10;;;10.70;99.90;;;;;;5110966;28;20489;-69
2021/05/15 05:01:04;;;;;;;5.43;4.87;;;10.70;99.90;;;;;;5109884;28;20469;-68
2021/05/15 05:03:31;;;;;;;4.70;4.30;;;10.80;99.90;;;;;;5110187;28;20449;-69
2021/05/15 05:05:57;;;;;;;5.10;4.60;;;10.90;99.90;;;;;;5110572;28;20468;-68
2021/05/15 05:08:25;;;;;;;6.83;4.20;;;11.00;99.90;;;;;;5110257;28;20449;-68
2021/05/15 05:10:51;;;;;;;4.63;4.00;;;11.10;99.90;;;;;;5110597;28;20477;-68
2021/05/15 05:13:18;;;;;;;5.50;4.57;;;11.20;99.90;;;;;;5110965;28;20528;-68
2021/05/15 05:15:44;;;;;;;4.97;4.10;;;11.30;99.90;;;;;;5110120;28;20456;-69
2021/05/15 05:18:10;;;;;;;4.53;4.13;;;11.40;99.90;;;;;;5110425;28;20462;-68
2021/05/15 05:20:37;;;;;;;5.23;4.10;;;11.40;99.90;;;;;;5111350;28;20467;-69
2021/05/15 05:23:04;;;;;;;5.30;4.80;;;11.50;99.90;;;;;;5112731;28;20453;-68
2021/05/15 05:25:30;;;;;;;4.73;3.97;;;11.50;99.90;;;;;;5110682;28;20464;-69
2021/05/15 05:27:57;;;;;;;5.40;4.27;;;11.50;99.90;;;;;;5110436;28;20481;-68
2021/05/15 05:30:23;;;;;;;5.40;4.20;;;11.60;99.90;;;;;;5112342;28;20457;-68
2021/05/15 05:32:50;;;;;;;5.23;4.33;;;11.60;99.90;;;;;;5112187;28;20514;-68
2021/05/15 05:35:18;;;;;;;4.90;4.47;;;11.70;99.90;;;;;;5110754;28;20457;-68
2021/05/15 05:37:45;;;;;;;6.90;5.00;;;11.70;99.90;;;;;;5111336;28;20449;-69
2021/05/15 05:40:13;;;;;;;5.73;5.23;;;11.70;99.90;;;;;;5110159;28;20445;-68
2021/05/15 05:42:40;;;;;;;6.80;4.47;;;11.90;99.90;;;;;;5111360;28;20468;-69
2021/05/15 05:45:08;;;;;;;5.73;5.07;;;12.00;99.90;;;;;;5111157;28;20480;-69
2021/05/15 05:47:35;;;;;;;5.60;5.10;;;12.10;99.90;;;;;;5109360;28;20465;-68
2021/05/15 05:50:02;;;;;;;6.87;5.13;;;12.20;99.90;;;;;;5110180;28;20463;-68
2021/05/15 05:52:28;;;;;;;5.53;4.90;;;12.30;99.90;;;;;;5110432;28;20481;-69
2021/05/15 05:54:58;;;;;;;6.50;5.00;;;12.30;99.90;;;;;;5110575;28;20518;-68
2021/05/15 05:57:24;;;;;;;7.80;5.50;;;12.40;99.90;;;;;;5111444;28;20438;-68
2021/05/15 05:59:51;;;;;;;7.00;5.87;;;12.40;99.90;;;;;;5111268;28;20467;-68
2021/05/15 06:02:17;;;;;;;7.23;6.40;;;12.40;99.90;;;;;;5112049;28;20517;-68
2021/05/15 06:04:43;;;;;;;5.90;5.30;;;12.40;99.90;;;;;;5112244;28;20482;-68
2021/05/15 06:07:10;;;;;;;6.70;6.10;;;12.40;99.90;;;;;;5111051;28;20464;-68
2021/05/15 06:09:36;;;;;;;7.27;6.17;;;12.50;99.90;;;;;;5112339;28;20453;-68
2021/05/15 06:12:04;;;;;;;7.77;5.90;;;12.60;99.90;;;;;;5111781;28;20469;-67
2021/05/15 06:14:30;;;;;;;7.50;6.73;;;12.60;99.90;;;;;;5112231;28;20483;-68
2021/05/15 06:16:56;;;;;;;8.27;7.10;;;12.70;99.90;;;;;;5110826;28;20544;-68
2021/05/15 06:19:23;;;;;;;9.53;7.47;;;12.70;99.90;;;;;;5111059;28;20457;-68
2021/05/15 06:21:49;;;;;;;13.83;8.20;;;12.80;99.90;;;;;;5110585;28;20532;-68
2021/05/15 06:24:16;;;;;;;10.50;8.00;;;12.70;99.90;;;;;;5110934;28;20453;-68
2021/05/15 06:26:42;;;;;;;7.43;6.73;;;12.70;99.90;;;;;;5111989;28;20480;-68
2021/05/15 06:29:09;;;;;;;8.47;7.57;;;12.70;99.90;;;;;;5109860;28;20531;-69
2021/05/15 06:31:36;;;;;;;8.50;7.60;;;12.70;99.90;;;;;;5109331;28;20485;-69
2021/05/15 06:34:02;;;;;;;7.40;6.70;;;12.60;99.90;;;;;;5110533;28;20453;-68
2021/05/15 06:36:28;;;;;;;7.60;6.83;;;12.60;99.90;;;;;;5109770;28;20453;-68
2021/05/15 06:38:55;;;;;;;8.47;7.57;;;12.50;99.90;;;;;;5110903;28;20468;-68
2021/05/15 06:41:21;;;;;;;9.40;7.60;;;12.50;99.90;;;;;;5112866;28;20454;-68
2021/05/15 06:43:47;;;;;;;9.30;8.10;;;12.60;99.90;;;;;;5114365;28;20461;-68
2021/05/15 06:46:14;;;;;;;11.53;8.27;;;12.60;99.90;;;;;;5110432;28;20457;-69
2021/05/15 06:48:41;;;;;;;10.10;8.03;;;12.80;99.90;;;;;;5110204;28;20517;-69
2021/05/15 06:51:07;;;;;;;13.77;8.83;;;12.90;99.90;;;;;;5110346;28;20477;-68
2021/05/15 06:53:33;;;;;;;10.30;8.00;;;12.90;99.90;;;;;;5110038;28;20453;-68
2021/05/15 06:56:00;;;;;;;8.00;6.70;;;13.00;99.90;;;;;;5109290;28;20481;-72
2021/05/15 06:58:29;;;;;;;9.20;7.80;;;13.10;99.90;;;;;;5111217;28;20464;-68
2021/05/15 07:00:55;;;;;;;8.50;7.20;;;13.10;99.90;;;;;;5110780;28;20767;-68
2021/05/15 07:03:22;;;;;;;6.80;6.07;;;13.20;99.90;;;;;;5110987;28;20449;-68
2021/05/15 07:05:48;;;;;;;8.43;7.37;;;13.30;99.90;;;;;;5111779;28;20787;-68
2021/05/15 07:08:15;;;;;;;7.60;6.43;;;13.50;99.90;;;;;;5111807;28;20457;-68
2021/05/15 07:10:41;;;;;;;7.20;6.50;;;13.60;99.90;;;;;;5111844;28;20453;-68
2021/05/15 07:13:07;;;;;;;9.50;6.30;;;13.70;99.90;;;;;;5112341;28;20445;-68
2021/05/15 07:15:33;;;;;;;8.20;6.37;;;13.80;99.90;;;;;;5110694;28;20532;-68
2021/05/15 07:18:01;;;;;;;8.70;6.43;;;13.80;99.90;;;;;;5110165;28;20461;-68
2021/05/15 07:20:28;;;;;;;8.67;6.70;;;13.90;99.90;;;;;;5111423;28;20457;-68
2021/05/15 07:22:55;;;;;;;7.23;5.67;;;14.00;99.90;;;;;;5109464;28;20453;-67
2021/05/15 07:25:23;;;;;;;8.00;5.87;;;14.00;99.90;;;;;;5110428;28;20472;-67
2021/05/15 07:27:50;;;;;;;10.33;6.00;;;14.00;99.90;;;;;;5110429;28;20446;-67
2021/05/15 07:30:17;;;;;;;6.53;5.83;;;14.10;99.90;;;;;;5096871;28;20457;-67
2021/05/15 07:32:44;;;;;;;6.40;5.57;;;14.10;99.90;;;;;;5095920;28;20501;-66
2021/05/15 07:35:11;;;;;;;5.93;5.23;;;14.20;99.90;;;;;;5095658;28;20472;-67
2021/05/15 07:37:38;;;;;;;7.90;5.83;;;14.30;99.90;;;;;;5098315;28;20457;-66
2021/05/15 07:40:06;;;;;;;7.27;5.40;;;14.30;99.90;;;;;;5098309;28;20468;-66
2021/05/15 07:42:33;;;;;;;5.80;5.30;;;14.40;99.90;;;;;;5097439;28;20445;-66
2021/05/15 07:44:59;;;;;;;5.63;5.13;;;14.50;99.90;;;;;;5098082;28;20464;-66
2021/05/15 07:47:29;;;;;;;7.30;5.07;;;14.60;99.90;;;;;;5096525;28;20453;-65
2021/05/15 07:49:57;;;;;;;9.40;6.00;;;14.60;99.90;;;;;;5095486;28;20514;-65
2021/05/15 07:52:26;;;;;;;7.40;6.70;;;14.70;99.90;;;;;;5095355;28;20477;-65
2021/05/15 07:54:53;;;;;;;6.80;6.13;;;14.80;99.90;;;;;;5095125;28;20457;-65
2021/05/15 07:57:20;;;;;;;7.47;6.60;;;14.90;99.90;;;;;;5095272;28;20540;-65
2021/05/15 07:59:46;;;;;;;7.93;7.20;;;15.00;99.90;;;;;;5094459;28;20518;-65
2021/05/15 08:02:12;;;;;;;6.90;5.87;;;15.00;99.90;;;;;;5095186;28;20453;-66
2021/05/15 08:04:39;;;;;;;7.40;6.70;;;15.10;99.90;;;;;;5095423;28;20909;-66
2021/05/15 08:07:05;;;;;;;7.90;7.20;;;15.10;99.90;;;;;;5094749;28;20466;-66
2021/05/15 08:09:31;;;;;;;7.60;6.93;;;15.20;99.90;;;;;;5095116;28;20469;-66
2021/05/15 08:11:58;;;;;;;9.30;7.67;;;15.30;99.90;;;;;;5095774;28;20760;-65
2021/05/15 08:14:25;;;;;;;8.70;7.90;;;15.40;99.90;;;;;;5095211;28;20526;-66
2021/05/15 08:16:52;;;;;;;8.97;7.50;;;15.40;99.90;;;;;;5095312;28;20454;-66
2021/05/15 08:19:19;;;;;;;8.53;7.73;;;15.50;99.90;;;;;;5095524;28;20468;-65
2021/05/15 08:21:45;;;;;;;8.50;7.70;;;15.50;99.90;;;;;;5095127;28;20464;-65
2021/05/15 08:24:12;;;;;;;8.83;8.03;;;15.60;99.90;;;;;;5095111;28;20453;-66
2021/05/15 08:26:40;;;;;;;8.17;7.37;;;15.60;99.90;;;;;;5095197;28;20465;-66
2021/05/15 08:29:09;;;;;;;7.50;6.80;;;15.70;99.90;;;;;;5095059;28;20847;-65
2021/05/15 08:31:35;;;;;;;6.80;5.87;;;15.80;99.90;;;;;;5095001;28;20965;-66
2021/05/15 08:34:01;;;;;;;7.90;6.67;;;15.80;99.90;;;;;;5095156;28;20810;-65
2021/05/15 08:36:28;;;;;;;7.50;6.80;;;15.90;99.90;;;;;;5095451;28;20465;-64
2021/05/15 08:38:55;;;;;;;7.00;5.90;;;16.00;99.90;;;;;;5094860;28;20457;-66
2021/05/15 08:41:22;;;;;;;7.93;7.13;;;16.10;99.90;;;;;;5095343;28;20446;-65
2021/05/15 08:43:49;;;;;;;7.13;6.50;;;16.20;99.90;;;;;;5095194;28;20748;-65
2021/05/15 08:46:16;;;;;;;8.47;6.83;;;16.30;99.90;;;;;;5095707;28;20497;-66
2021/05/15 08:48:43;;;;;;;6.50;5.90;;;16.30;99.90;;;;;;5095205;28;20514;-65
2021/05/15 08:51:11;;;;;;;6.73;6.10;;;16.40;99.90;;;;;;5094452;28;20484;-65
2021/05/15 08:53:39;;;;;;;9.53;7.47;;;16.50;99.90;;;;;;5103992;28;20453;-71
2021/05/15 08:56:07;;;;;;;8.80;7.87;;;16.60;99.90;;;;;;5095187;28;20838;-67
2021/05/15 08:58:33;;;;;;;7.87;7.07;;;16.70;99.90;;;;;;5095293;28;20454;-67
2021/05/15 09:00:59;;;;;;;9.20;7.13;;;16.70;99.90;;;;;;5095864;28;20836;-67
2021/05/15 09:03:26;;;;;;;8.10;7.40;;;16.70;99.90;;;;;;5095705;28;20468;-67
2021/05/15 09:05:53;;;;;;;7.67;6.97;;;16.70;99.90;;;;;;5095106;28;20454;-67
2021/05/15 09:08:20;;;;;;;8.10;7.30;;;16.90;99.90;;;;;;5095243;28;20530;-67
2021/05/15 09:10:48;;;;;;;8.37;7.50;;;16.90;99.90;;;;;;5095877;28;20457;-67
2021/05/15 09:13:17;;;;;;;8.17;7.33;;;17.10;99.90;;;;;;5098836;28;20498;-68
2021/05/15 09:15:46;;;;;;;8.10;7.27;;;17.10;99.90;;;;;;5099330;28;20457;-66
2021/05/15 09:18:15;;;;;;;8.73;7.93;;;17.20;99.90;;;;;;5098734;28;20502;-67
2021/05/15 09:20:42;;;;;;;7.43;6.73;;;17.20;99.90;;;;;;5099645;28;20457;-67
2021/05/15 09:23:18;;;;;;;6.70;6.10;;;17.20;99.90;;;;;;5100057;28;20449;-66
2021/05/15 09:25:54;;;;;;;8.50;7.60;;;17.30;99.90;;;;;;5099476;28;20534;-67
2021/05/15 09:28:34;;;;;;;7.50;6.80;;;17.40;99.90;;;;;;5098964;28;20460;-67
2021/05/15 09:31:09;;;;;;;8.50;7.10;;;17.50;99.90;;;;;;5098415;28;20480;-67
2021/05/15 09:33:36;;;;;;;6.90;6.30;;;17.50;99.90;;;;;;5099382;28;20448;-67
2021/05/15 09:36:19;;;;;;;6.83;5.80;;;17.60;99.90;;;;;;5098574;28;20462;-66
2021/05/15 09:38:46;;;;;;;7.20;6.50;;;17.70;99.90;;;;;;5099314;28;20438;-67
2021/05/15 09:41:13;;;;;;;6.63;6.00;;;17.90;99.90;;;;;;5100128;28;20483;-68
2021/05/15 09:43:39;;;;;;;6.93;6.20;;;18.10;99.90;;;;;;5101434;28;20516;-68
2021/05/15 09:46:09;;;;;;;7.07;6.37;;;18.20;99.90;;;;;;5098804;28;20453;-67
2021/05/15 09:48:35;;;;;;;5.93;5.43;;;18.20;99.90;;;;;;5099348;28;20550;-67
2021/05/15 09:51:13;;;;;;;6.63;6.03;;;18.30;99.90;;;;;;5098713;28;20468;-67
2021/05/15 09:53:39;;;;;;;5.63;5.10;;;18.40;99.90;;;;;;5097803;28;20438;-68
2021/05/15 09:56:06;;;;;;;6.20;5.60;;;18.50;99.90;;;;;;5099673;28;20975;-66
2021/05/15 09:58:32;;;;;;;6.00;5.30;;;18.60;99.90;;;;;;5099208;28;20464;-68
2021/05/15 10:00:58;;;;;;;5.10;4.70;;;18.80;99.90;;;;;;5099963;28;20928;-67
2021/05/15 10:03:26;;;;;;;5.83;3.90;;;18.80;99.90;;;;;;5098317;28;20445;-68
2021/05/15 10:06:03;;;;;;;4.33;3.93;;;18.90;99.90;;;;;;5097520;28;20505;-67
2021/05/15 10:08:32;;;;;;;4.73;4.33;;;19.00;99.90;;;;;;5097934;28;20444;-68
2021/05/15 10:11:00;;;;;;;4.40;4.00;;;19.10;99.90;;;;;;5097721;28;20453;-67
2021/05/15 10:13:29;;;;;;;4.57;4.17;;;19.30;99.90;;;;;;5097665;28;20457;-67
2021/05/15 10:15:55;;;;;;;4.10;3.73;;;19.40;99.90;;;;;;5097255;28;20468;-67
2021/05/15 10:18:21;;;;;;;2.67;2.30;;;19.70;99.90;;;;;;5097610;28;20453;-67
2021/05/15 10:20:50;;;;;;;2.70;2.50;;;19.70;99.90;;;;;;5097186;28;20465;-67
2021/05/15 10:23:22;;;;;;;2.70;2.50;;;19.70;99.90;;;;;;5096370;28;20514;-67
2021/05/15 10:25:59;;;;;;;2.73;2.30;;;19.60;99.90;;;;;;5097194;28;20472;-67
2021/05/15 10:28:27;;;;;;;2.73;2.50;;;19.70;99.90;;;;;;5097087;28;20510;-67
2021/05/15 10:31:18;;;;;;;2.23;2.03;;;19.80;99.90;;;;;;5096813;28;20485;-66
2021/05/15 10:33:46;;;;;;;1.70;1.60;;;19.90;99.90;;;;;;5081620;28;20531;-67
2021/05/15 10:36:20;;;;;;;1.70;1.60;;;20.00;99.90;;;;;;5096622;28;20518;-67
2021/05/15 10:38:46;;;;;;;3.40;2.17;;;20.10;99.90;;;;;;5099081;28;20940;-67
2021/05/15 10:41:16;;;;;;;2.07;1.77;;;20.00;99.90;;;;;;5114050;28;20460;-67
2021/05/15 10:43:44;;;;;;;4.27;1.93;;;20.10;99.90;;;;;;5114733;28;20537;-68
2021/05/15 10:46:15;;;;;;;1.80;1.70;;;20.20;99.90;;;;;;5113279;28;20500;-68
2021/05/15 10:48:41;;;;;;;1.83;1.70;;;20.20;99.90;;;;;;5113431;28;20453;-68
2021/05/15 10:51:14;;;;;;;2.40;1.63;;;20.30;99.90;;;;;;5112615;28;20458;-69
2021/05/15 10:53:41;;;;;;;1.80;1.67;;;20.20;99.90;;;;;;5111606;28;20466;-68
2021/05/15 10:56:13;;;;;;;1.70;1.60;;;20.10;99.90;;;;;;5111289;28;20476;-69
2021/05/15 10:58:45;;;;;;;1.70;1.60;;;20.10;99.90;;;;;;5111199;28;20449;-68
2021/05/15 11:01:14;;;;;;;1.43;1.27;;;19.90;99.90;;;;;;5114039;28;20450;-68
2021/05/15 11:03:43;;;;;;;1.60;1.17;;;19.90;99.90;;;;;;5113799;28;20484;-69
2021/05/15 11:06:15;;;;;;;2.60;1.10;;;20.00;99.90;;;;;;5113682;28;20463;-69
2021/05/15 11:08:41;;;;;;;1.20;0.90;;;20.00;99.90;;;;;;5113698;28;20464;-68
2021/05/15 11:11:10;;;;;;;1.50;1.20;;;20.10;99.90;;;;;;5113395;28;20454;-69
2021/05/15 11:13:47;;;;;;;1.13;0.90;;;20.00;99.90;;;;;;5113952;28;20502;-68
2021/05/15 11:16:14;;;;;;;1.40;1.10;;;20.00;99.90;;;;;;5114574;28;20429;-68
2021/05/15 11:18:40;;;;;;;1.40;1.30;;;20.00;99.90;;;;;;5113441;28;20556;-69
2021/05/15 11:21:09;;;;;;;1.80;1.40;;;20.10;99.90;;;;;;5113037;28;20445;-68
2021/05/15 11:23:37;;;;;;;1.30;1.20;;;20.10;99.90;;;;;;5113332;28;20453;-69
2021/05/15 11:26:06;;;;;;;1.60;1.40;;;20.20;99.90;;;;;;5111386;28;20552;-69
2021/05/15 11:28:33;;;;;;;1.90;1.40;;;20.10;99.90;;;;;;5111689;28;20509;-68
2021/05/15 11:31:07;;;;;;;1.80;1.70;;;20.00;99.90;;;;;;5113935;28;20474;-68
2021/05/15 11:33:35;;;;;;;2.20;1.10;;;19.80;99.90;;;;;;5112995;28;20479;-69
2021/05/15 11:36:01;;;;;;;2.43;1.00;;;19.80;99.90;;;;;;5112766;28;20445;-68
2021/05/15 11:38:29;;;;;;;1.40;1.00;;;20.00;99.90;;;;;;5112733;28;20514;-68
2021/05/15 11:40:57;;;;;;;5.60;1.33;;;20.40;99.90;;;;;;5108992;28;20471;-69
2021/05/15 11:43:25;;;;;;;1.87;0.80;;;20.90;99.90;;;;;;5109103;28;20445;-69
2021/05/15 11:45:52;;;;;;;1.80;0.90;;;21.10;99.90;;;;;;5112218;28;20517;-68
2021/05/15 11:48:22;;;;;;;1.00;0.70;;;20.90;99.90;;;;;;5111958;28;20483;-69
2021/05/15 11:50:59;;;;;;;1.03;0.80;;;20.60;99.90;;;;;;5111392;28;20549;-68
2021/05/15 11:53:26;;;;;;;2.60;0.90;;;20.10;99.90;;;;;;5111592;28;20473;-68
2021/05/15 11:55:52;;;;;;;1.50;0.70;;;19.50;99.90;;;;;;5112708;28;20453;-69
2021/05/15 11:58:19;;;;;;;1.10;0.73;;;19.00;99.90;;;;;;5112196;28;20454;-69
2021/05/15 12:00:46;;;;;;;1.40;0.70;;;18.70;99.90;;;;;;5112865;28;20449;-68
2021/05/15 12:03:12;;;;;;;1.23;0.90;;;18.40;99.90;;;;;;5111571;28;20454;-69
2021/05/15 12:05:39;;;;;;;1.83;0.90;;;18.30;99.90;;;;;;5112879;28;20460;-69
2021/05/15 12:08:13;;;;;;;1.00;0.70;;;18.10;99.90;;;;;;5112388;28;20453;-68
2021/05/15 12:10:40;;;;;;;1.30;0.87;;;18.10;99.90;;;;;;5111242;28;20457;-69
2021/05/15 12:13:07;;;;;;;1.10;0.70;;;18.10;99.90;;;;;;5110940;28;20476;-68
2021/05/15 12:15:36;;;;;;;1.20;0.80;;;18.20;99.90;;;;;;5111157;28;20516;-68
2021/05/15 12:18:03;;;;;;;0.90;0.70;;;18.40;99.90;;;;;;5109160;28;20457;-68
2021/05/15 12:20:31;;;;;;;1.20;0.70;;;18.50;99.90;;;;;;5109662;28;20576;-68
2021/05/15 12:23:10;;;;;;;1.20;0.90;;;18.60;99.90;;;;;;5111239;28;20502;-68
2021/05/15 12:25:39;;;;;;;1.10;0.77;;;18.80;99.90;;;;;;5112704;28;20451;-68
2021/05/15 12:28:17;;;;;;;2.97;1.10;;;19.60;99.90;;;;;;5112150;28;20584;-68
2021/05/15 12:30:43;;;;;;;1.20;0.70;;;20.80;99.90;;;;;;5112686;28;20448;-68
2021/05/15 12:33:10;;;;;;;5.27;0.83;;;21.50;99.90;;;;;;5113099;28;20521;-68
2021/05/15 12:35:36;;;;;;;1.27;0.80;;;21.70;99.90;;;;;;5111393;28;20441;-68
2021/05/15 12:38:07;;;;;;;1.30;0.90;;;21.90;99.90;;;;;;5112030;28;20471;-69
2021/05/15 12:40:35;;;;;;;5.93;0.93;;;21.80;99.90;;;;;;5113335;28;20433;-68
2021/05/15 12:43:12;;;;;;;1.10;0.80;;;21.80;99.90;;;;;;5113417;28;20479;-69
2021/05/15 12:45:39;;;;;;;1.17;0.77;;;21.50;99.90;;;;;;5114827;28;20457;-68
2021/05/15 12:48:07;;;;;;;1.97;0.80;;;21.30;99.90;;;;;;5117594;28;20449;-68
2021/05/15 12:50:37;;;;;;;1.00;0.70;;;20.90;99.90;;;;;;5116976;28;20468;-69